sensor_id;sensor_type;location;lat;lon;timestamp;P1;durP1;ratioP1;P2;durP2;ratioP2
75774;SDS011;64505;51.458;7.556;2023-08-31T00:00:40;15.43;;;6.25;;
75774;SDS011;64505;51.458;7.556;2023-08-31T00:02:43;9.93;;;5.75;;
75774;SDS011;64505;51.458;7.556;2023-08-31T00:04:44;11.77;;;5.53;;
75774;SDS011;64505;51.458;7.556;2023-08-31T00:06:46;9.30;;;5.80;;
75774;SDS011;64505;51.458;7.556;2023-08-31T00:08:48;13.50;;;6.20;;
75774;SDS011;64505;51.458;7.556;2023-08-31T00:10:56;12.45;;;5.57;;
75774;SDS011;64505;51.458;7.556;2023-08-31T00:12:58;9.63;;;5.35;;
75774;SDS011;64505;51.458;7.556;2023-08-31T00:15:00;9.63;;;5.38;;
75774;SDS011;64505;51.458;7.556;2023-08-31T00:17:01;10.57;;;5.50;;
75774;SDS011;64505;51.458;7.556;2023-08-31T00:19:04;11.45;;;5.95;;
75774;SDS011;64505;51.458;7.556;2023-08-31T00:21:06;10.13;;;5.63;;
75774;SDS011;64505;51.458;7.556;2023-08-31T00:23:09;13.13;;;5.13;;
75774;SDS011;64505;51.458;7.556;2023-08-31T00:25:11;8.65;;;4.93;;
75774;SDS011;64505;51.458;7.556;2023-08-31T00:27:13;10.07;;;5.47;;
75774;SDS011;64505;51.458;7.556;2023-08-31T00:29:16;9.27;;;5.55;;
75774;SDS011;64505;51.458;7.556;2023-08-31T00:31:17;14.15;;;5.65;;
75774;SDS011;64505;51.458;7.556;2023-08-31T00:33:19;9.80;;;6.10;;
75774;SDS011;64505;51.458;7.556;2023-08-31T00:35:20;10.98;;;5.97;;
75774;SDS011;64505;51.458;7.556;2023-08-31T00:37:22;10.15;;;4.95;;
75774;SDS011;64505;51.458;7.556;2023-08-31T00:39:24;10.27;;;5.97;;
75774;SDS011;64505;51.458;7.556;2023-08-31T00:41:25;10.15;;;5.22;;
75774;SDS011;64505;51.458;7.556;2023-08-31T00:43:27;8.68;;;4.90;;
75774;SDS011;64505;51.458;7.556;2023-08-31T00:45:29;8.93;;;5.10;;
75774;SDS011;64505;51.458;7.556;2023-08-31T00:47:31;10.30;;;5.25;;
75774;SDS011;64505;51.458;7.556;2023-08-31T00:49:33;9.10;;;4.95;;
75774;SDS011;64505;51.458;7.556;2023-08-31T00:51:36;8.40;;;4.85;;
75774;SDS011;64505;51.458;7.556;2023-08-31T00:53:38;9.77;;;5.25;;
75774;SDS011;64505;51.458;7.556;2023-08-31T00:55:40;7.93;;;4.95;;
75774;SDS011;64505;51.458;7.556;2023-08-31T00:57:42;9.18;;;5.22;;
75774;SDS011;64505;51.458;7.556;2023-08-31T00:59:43;9.55;;;4.88;;
75774;SDS011;64505;51.458;7.556;2023-08-31T01:02:05;15.60;;;5.05;;
75774;SDS011;64505;51.458;7.556;2023-08-31T01:09:34;10.57;;;4.30;;
75774;SDS011;64505;51.458;7.556;2023-08-31T01:11:39;10.18;;;5.00;;
75774;SDS011;64505;51.458;7.556;2023-08-31T01:13:57;9.95;;;4.80;;
75774;SDS011;64505;51.458;7.556;2023-08-31T01:16:10;9.00;;;4.85;;
75774;SDS011;64505;51.458;7.556;2023-08-31T01:18:15;10.45;;;4.88;;
75774;SDS011;64505;51.458;7.556;2023-08-31T01:20:31;8.13;;;4.32;;
75774;SDS011;64505;51.458;7.556;2023-08-31T01:24:37;6.28;;;3.28;;
75774;SDS011;64505;51.458;7.556;2023-08-31T01:26:39;10.82;;;3.90;;
75774;SDS011;64505;51.458;7.556;2023-08-31T01:30:50;8.85;;;4.43;;
75774;SDS011;64505;51.458;7.556;2023-08-31T01:32:52;7.30;;;3.45;;
75774;SDS011;64505;51.458;7.556;2023-08-31T01:34:53;9.65;;;3.80;;
75774;SDS011;64505;51.458;7.556;2023-08-31T01:36:56;7.25;;;3.40;;
75774;SDS011;64505;51.458;7.556;2023-08-31T01:41:16;7.88;;;3.20;;
75774;SDS011;64505;51.458;7.556;2023-08-31T01:43:19;8.52;;;3.33;;
75774;SDS011;64505;51.458;7.556;2023-08-31T01:45:22;7.70;;;3.20;;
75774;SDS011;64505;51.458;7.556;2023-08-31T01:47:25;7.68;;;3.10;;
75774;SDS011;64505;51.458;7.556;2023-08-31T01:49:28;8.38;;;2.97;;
75774;SDS011;64505;51.458;7.556;2023-08-31T01:51:29;9.80;;;3.20;;
75774;SDS011;64505;51.458;7.556;2023-08-31T01:53:30;9.45;;;3.10;;
75774;SDS011;64505;51.458;7.556;2023-08-31T01:55:32;8.48;;;3.42;;
75774;SDS011;64505;51.458;7.556;2023-08-31T01:57:34;8.73;;;3.63;;
75774;SDS011;64505;51.458;7.556;2023-08-31T01:59:35;7.93;;;3.15;;
75774;SDS011;64505;51.458;7.556;2023-08-31T02:01:37;6.88;;;3.25;;
75774;SDS011;64505;51.458;7.556;2023-08-31T02:03:38;5.10;;;2.97;;
75774;SDS011;64505;51.458;7.556;2023-08-31T02:05:40;5.32;;;3.15;;
75774;SDS011;64505;51.458;7.556;2023-08-31T02:07:42;7.10;;;3.30;;
75774;SDS011;64505;51.458;7.556;2023-08-31T02:09:43;7.07;;;3.45;;
75774;SDS011;64505;51.458;7.556;2023-08-31T02:11:45;7.32;;;3.50;;
75774;SDS011;64505;51.458;7.556;2023-08-31T02:13:48;7.40;;;3.53;;
75774;SDS011;64505;51.458;7.556;2023-08-31T02:15:53;6.15;;;3.35;;
75774;SDS011;64505;51.458;7.556;2023-08-31T02:17:55;8.05;;;2.67;;
75774;SDS011;64505;51.458;7.556;2023-08-31T02:19:57;6.30;;;3.10;;
75774;SDS011;64505;51.458;7.556;2023-08-31T02:21:59;8.02;;;3.72;;
75774;SDS011;64505;51.458;7.556;2023-08-31T02:24:00;7.70;;;3.80;;
75774;SDS011;64505;51.458;7.556;2023-08-31T02:26:02;6.78;;;3.28;;
75774;SDS011;64505;51.458;7.556;2023-08-31T02:28:03;7.63;;;3.35;;
75774;SDS011;64505;51.458;7.556;2023-08-31T02:30:05;9.65;;;3.55;;
75774;SDS011;64505;51.458;7.556;2023-08-31T02:32:07;10.60;;;3.60;;
75774;SDS011;64505;51.458;7.556;2023-08-31T02:34:09;7.50;;;3.78;;
75774;SDS011;64505;51.458;7.556;2023-08-31T02:36:10;8.55;;;3.75;;
75774;SDS011;64505;51.458;7.556;2023-08-31T02:38:11;8.40;;;3.90;;
75774;SDS011;64505;51.458;7.556;2023-08-31T02:40:13;7.97;;;3.75;;
75774;SDS011;64505;51.458;7.556;2023-08-31T02:42:15;9.88;;;3.90;;
75774;SDS011;64505;51.458;7.556;2023-08-31T02:44:16;7.80;;;4.03;;
75774;SDS011;64505;51.458;7.556;2023-08-31T02:46:20;6.93;;;3.67;;
75774;SDS011;64505;51.458;7.556;2023-08-31T02:48:22;8.57;;;4.47;;
75774;SDS011;64505;51.458;7.556;2023-08-31T02:50:23;8.10;;;4.18;;
75774;SDS011;64505;51.458;7.556;2023-08-31T02:52:25;8.00;;;4.28;;
75774;SDS011;64505;51.458;7.556;2023-08-31T02:54:27;8.48;;;4.03;;
75774;SDS011;64505;51.458;7.556;2023-08-31T02:56:28;7.80;;;3.58;;
75774;SDS011;64505;51.458;7.556;2023-08-31T02:58:30;10.88;;;4.00;;
75774;SDS011;64505;51.458;7.556;2023-08-31T03:00:33;8.38;;;3.90;;
75774;SDS011;64505;51.458;7.556;2023-08-31T03:02:35;7.20;;;3.58;;
75774;SDS011;64505;51.458;7.556;2023-08-31T03:04:37;8.05;;;3.50;;
75774;SDS011;64505;51.458;7.556;2023-08-31T03:06:38;7.05;;;4.47;;
75774;SDS011;64505;51.458;7.556;2023-08-31T03:08:39;7.43;;;3.65;;
75774;SDS011;64505;51.458;7.556;2023-08-31T03:10:41;9.30;;;4.40;;
75774;SDS011;64505;51.458;7.556;2023-08-31T03:12:42;9.73;;;4.47;;
75774;SDS011;64505;51.458;7.556;2023-08-31T03:14:44;10.25;;;4.20;;
75774;SDS011;64505;51.458;7.556;2023-08-31T03:16:45;11.55;;;4.30;;
75774;SDS011;64505;51.458;7.556;2023-08-31T03:18:47;8.32;;;4.47;;
75774;SDS011;64505;51.458;7.556;2023-08-31T03:20:49;7.97;;;4.72;;
75774;SDS011;64505;51.458;7.556;2023-08-31T03:22:50;9.40;;;3.92;;
75774;SDS011;64505;51.458;7.556;2023-08-31T03:24:52;6.95;;;4.32;;
75774;SDS011;64505;51.458;7.556;2023-08-31T03:26:53;11.13;;;4.85;;
75774;SDS011;64505;51.458;7.556;2023-08-31T03:28:55;11.32;;;4.30;;
75774;SDS011;64505;51.458;7.556;2023-08-31T03:30:56;6.72;;;3.90;;
75774;SDS011;64505;51.458;7.556;2023-08-31T03:32:58;8.93;;;5.57;;
75774;SDS011;64505;51.458;7.556;2023-08-31T03:35:01;9.73;;;4.22;;
75774;SDS011;64505;51.458;7.556;2023-08-31T03:37:04;7.68;;;4.13;;
75774;SDS011;64505;51.458;7.556;2023-08-31T03:39:05;9.15;;;5.07;;
75774;SDS011;64505;51.458;7.556;2023-08-31T03:41:07;8.55;;;4.38;;
75774;SDS011;64505;51.458;7.556;2023-08-31T03:43:08;9.88;;;5.32;;
75774;SDS011;64505;51.458;7.556;2023-08-31T03:45:11;9.98;;;4.90;;
75774;SDS011;64505;51.458;7.556;2023-08-31T03:47:12;9.75;;;5.07;;
75774;SDS011;64505;51.458;7.556;2023-08-31T03:49:14;10.10;;;4.90;;
75774;SDS011;64505;51.458;7.556;2023-08-31T03:51:15;11.48;;;5.63;;
75774;SDS011;64505;51.458;7.556;2023-08-31T03:53:17;13.98;;;5.82;;
75774;SDS011;64505;51.458;7.556;2023-08-31T03:55:18;9.93;;;6.22;;
75774;SDS011;64505;51.458;7.556;2023-08-31T03:57:20;8.95;;;5.57;;
75774;SDS011;64505;51.458;7.556;2023-08-31T03:59:22;11.43;;;7.25;;
75774;SDS011;64505;51.458;7.556;2023-08-31T04:01:23;12.18;;;6.43;;
75774;SDS011;64505;51.458;7.556;2023-08-31T04:03:25;10.23;;;6.60;;
75774;SDS011;64505;51.458;7.556;2023-08-31T04:05:26;12.85;;;6.53;;
75774;SDS011;64505;51.458;7.556;2023-08-31T04:07:28;14.57;;;6.75;;
75774;SDS011;64505;51.458;7.556;2023-08-31T04:09:29;10.25;;;6.18;;
75774;SDS011;64505;51.458;7.556;2023-08-31T04:11:31;11.25;;;7.40;;
75774;SDS011;64505;51.458;7.556;2023-08-31T04:13:32;9.85;;;6.95;;
75774;SDS011;64505;51.458;7.556;2023-08-31T04:15:34;11.38;;;7.70;;
75774;SDS011;64505;51.458;7.556;2023-08-31T04:17:35;13.43;;;7.80;;
75774;SDS011;64505;51.458;7.556;2023-08-31T04:19:37;11.88;;;7.47;;
75774;SDS011;64505;51.458;7.556;2023-08-31T04:21:39;12.77;;;7.47;;
75774;SDS011;64505;51.458;7.556;2023-08-31T04:23:40;11.27;;;7.90;;
75774;SDS011;64505;51.458;7.556;2023-08-31T04:25:42;12.43;;;8.13;;
75774;SDS011;64505;51.458;7.556;2023-08-31T04:27:44;11.00;;;7.45;;
75774;SDS011;64505;51.458;7.556;2023-08-31T04:29:46;13.02;;;7.88;;
75774;SDS011;64505;51.458;7.556;2023-08-31T04:31:49;15.00;;;7.68;;
75774;SDS011;64505;51.458;7.556;2023-08-31T04:33:50;13.20;;;7.88;;
75774;SDS011;64505;51.458;7.556;2023-08-31T04:35:54;14.85;;;8.07;;
75774;SDS011;64505;51.458;7.556;2023-08-31T04:37:56;13.60;;;8.95;;
75774;SDS011;64505;51.458;7.556;2023-08-31T04:39:58;12.80;;;8.70;;
75774;SDS011;64505;51.458;7.556;2023-08-31T04:41:59;13.70;;;8.57;;
75774;SDS011;64505;51.458;7.556;2023-08-31T04:44:03;14.00;;;8.80;;
75774;SDS011;64505;51.458;7.556;2023-08-31T04:46:04;14.20;;;9.07;;
75774;SDS011;64505;51.458;7.556;2023-08-31T04:48:06;16.15;;;8.23;;
75774;SDS011;64505;51.458;7.556;2023-08-31T04:50:11;11.57;;;7.80;;
75774;SDS011;64505;51.458;7.556;2023-08-31T04:52:12;13.00;;;7.93;;
75774;SDS011;64505;51.458;7.556;2023-08-31T04:54:14;13.23;;;8.57;;
75774;SDS011;64505;51.458;7.556;2023-08-31T04:56:16;12.10;;;8.65;;
75774;SDS011;64505;51.458;7.556;2023-08-31T04:58:17;13.80;;;8.43;;
75774;SDS011;64505;51.458;7.556;2023-08-31T05:00:19;18.48;;;8.52;;
75774;SDS011;64505;51.458;7.556;2023-08-31T05:02:20;11.00;;;8.00;;
75774;SDS011;64505;51.458;7.556;2023-08-31T05:04:22;12.38;;;7.57;;
75774;SDS011;64505;51.458;7.556;2023-08-31T05:06:24;14.25;;;8.75;;
75774;SDS011;64505;51.458;7.556;2023-08-31T05:08:26;13.32;;;8.15;;
75774;SDS011;64505;51.458;7.556;2023-08-31T05:10:27;13.93;;;8.27;;
75774;SDS011;64505;51.458;7.556;2023-08-31T05:12:29;12.77;;;7.90;;
75774;SDS011;64505;51.458;7.556;2023-08-31T05:14:30;13.55;;;8.63;;
75774;SDS011;64505;51.458;7.556;2023-08-31T05:16:32;16.40;;;8.82;;
75774;SDS011;64505;51.458;7.556;2023-08-31T05:18:33;14.40;;;8.98;;
75774;SDS011;64505;51.458;7.556;2023-08-31T05:20:35;11.70;;;8.23;;
75774;SDS011;64505;51.458;7.556;2023-08-31T05:22:36;13.60;;;8.90;;
75774;SDS011;64505;51.458;7.556;2023-08-31T05:24:38;15.82;;;8.27;;
75774;SDS011;64505;51.458;7.556;2023-08-31T05:26:39;16.80;;;8.77;;
75774;SDS011;64505;51.458;7.556;2023-08-31T05:28:41;14.95;;;9.10;;
75774;SDS011;64505;51.458;7.556;2023-08-31T05:30:49;14.32;;;9.55;;
75774;SDS011;64505;51.458;7.556;2023-08-31T05:32:52;15.07;;;9.15;;
75774;SDS011;64505;51.458;7.556;2023-08-31T05:34:53;14.02;;;9.00;;
75774;SDS011;64505;51.458;7.556;2023-08-31T05:36:55;13.68;;;8.70;;
75774;SDS011;64505;51.458;7.556;2023-08-31T05:38:56;16.42;;;9.45;;
75774;SDS011;64505;51.458;7.556;2023-08-31T05:41:04;13.02;;;8.60;;
75774;SDS011;64505;51.458;7.556;2023-08-31T05:43:07;16.67;;;10.18;;
75774;SDS011;64505;51.458;7.556;2023-08-31T05:45:09;15.65;;;9.45;;
75774;SDS011;64505;51.458;7.556;2023-08-31T05:47:10;16.52;;;10.13;;
75774;SDS011;64505;51.458;7.556;2023-08-31T05:49:12;14.13;;;9.63;;
75774;SDS011;64505;51.458;7.556;2023-08-31T05:51:14;15.65;;;9.43;;
75774;SDS011;64505;51.458;7.556;2023-08-31T05:53:15;14.95;;;9.80;;
75774;SDS011;64505;51.458;7.556;2023-08-31T05:55:19;15.60;;;10.30;;
75774;SDS011;64505;51.458;7.556;2023-08-31T05:57:22;17.73;;;10.07;;
75774;SDS011;64505;51.458;7.556;2023-08-31T05:59:24;18.13;;;9.88;;
75774;SDS011;64505;51.458;7.556;2023-08-31T06:01:26;19.58;;;10.35;;
75774;SDS011;64505;51.458;7.556;2023-08-31T06:03:27;18.48;;;10.43;;
75774;SDS011;64505;51.458;7.556;2023-08-31T06:05:30;16.75;;;11.05;;
75774;SDS011;64505;51.458;7.556;2023-08-31T06:07:32;16.88;;;10.30;;
75774;SDS011;64505;51.458;7.556;2023-08-31T06:09:34;17.30;;;9.68;;
75774;SDS011;64505;51.458;7.556;2023-08-31T06:11:35;17.50;;;9.70;;
75774;SDS011;64505;51.458;7.556;2023-08-31T06:13:37;16.70;;;9.77;;
75774;SDS011;64505;51.458;7.556;2023-08-31T06:15:39;14.77;;;9.65;;
75774;SDS011;64505;51.458;7.556;2023-08-31T06:17:40;17.88;;;9.32;;
75774;SDS011;64505;51.458;7.556;2023-08-31T06:19:44;16.02;;;8.98;;
75774;SDS011;64505;51.458;7.556;2023-08-31T06:21:45;17.10;;;9.43;;
75774;SDS011;64505;51.458;7.556;2023-08-31T06:23:47;15.65;;;9.50;;
75774;SDS011;64505;51.458;7.556;2023-08-31T06:25:48;16.60;;;9.77;;
75774;SDS011;64505;51.458;7.556;2023-08-31T06:27:50;15.15;;;9.20;;
75774;SDS011;64505;51.458;7.556;2023-08-31T06:29:52;18.27;;;9.93;;
75774;SDS011;64505;51.458;7.556;2023-08-31T06:31:54;16.60;;;9.68;;
75774;SDS011;64505;51.458;7.556;2023-08-31T06:33:55;16.20;;;9.27;;
75774;SDS011;64505;51.458;7.556;2023-08-31T06:35:57;16.33;;;9.07;;
75774;SDS011;64505;51.458;7.556;2023-08-31T06:37:58;19.00;;;10.18;;
75774;SDS011;64505;51.458;7.556;2023-08-31T06:40:00;18.00;;;10.18;;
75774;SDS011;64505;51.458;7.556;2023-08-31T06:42:02;17.02;;;10.00;;
75774;SDS011;64505;51.458;7.556;2023-08-31T06:44:04;17.92;;;10.65;;
75774;SDS011;64505;51.458;7.556;2023-08-31T06:46:06;19.27;;;9.57;;
75774;SDS011;64505;51.458;7.556;2023-08-31T06:48:24;16.90;;;9.98;;
75774;SDS011;64505;51.458;7.556;2023-08-31T06:50:26;18.17;;;9.60;;
75774;SDS011;64505;51.458;7.556;2023-08-31T06:52:28;15.85;;;9.25;;
75774;SDS011;64505;51.458;7.556;2023-08-31T06:54:32;16.10;;;9.27;;
75774;SDS011;64505;51.458;7.556;2023-08-31T06:56:34;15.55;;;8.13;;
75774;SDS011;64505;51.458;7.556;2023-08-31T06:58:36;14.77;;;9.40;;
75774;SDS011;64505;51.458;7.556;2023-08-31T07:00:38;14.45;;;9.30;;
75774;SDS011;64505;51.458;7.556;2023-08-31T07:02:39;16.15;;;9.32;;
75774;SDS011;64505;51.458;7.556;2023-08-31T07:04:42;14.48;;;9.45;;
75774;SDS011;64505;51.458;7.556;2023-08-31T07:06:44;13.55;;;7.93;;
75774;SDS011;64505;51.458;7.556;2023-08-31T07:08:46;13.15;;;8.07;;
75774;SDS011;64505;51.458;7.556;2023-08-31T07:10:51;12.00;;;8.20;;
75774;SDS011;64505;51.458;7.556;2023-08-31T07:12:53;11.70;;;7.72;;
75774;SDS011;64505;51.458;7.556;2023-08-31T07:14:54;13.32;;;8.43;;
75774;SDS011;64505;51.458;7.556;2023-08-31T07:16:56;13.70;;;7.95;;
75774;SDS011;64505;51.458;7.556;2023-08-31T07:18:57;12.32;;;7.10;;
75774;SDS011;64505;51.458;7.556;2023-08-31T07:20:59;13.70;;;7.28;;
75774;SDS011;64505;51.458;7.556;2023-08-31T07:23:01;9.80;;;6.72;;
75774;SDS011;64505;51.458;7.556;2023-08-31T07:25:03;9.88;;;5.93;;
75774;SDS011;64505;51.458;7.556;2023-08-31T07:27:05;9.20;;;4.72;;
75774;SDS011;64505;51.458;7.556;2023-08-31T07:29:09;8.93;;;5.22;;
75774;SDS011;64505;51.458;7.556;2023-08-31T07:31:11;8.18;;;5.65;;
75774;SDS011;64505;51.458;7.556;2023-08-31T07:33:13;8.85;;;5.97;;
75774;SDS011;64505;51.458;7.556;2023-08-31T07:35:31;9.13;;;5.57;;
75774;SDS011;64505;51.458;7.556;2023-08-31T07:37:32;8.50;;;5.57;;
75774;SDS011;64505;51.458;7.556;2023-08-31T07:39:34;8.70;;;4.82;;
75774;SDS011;64505;51.458;7.556;2023-08-31T07:41:36;8.68;;;5.65;;
75774;SDS011;64505;51.458;7.556;2023-08-31T07:43:37;10.38;;;5.55;;
75774;SDS011;64505;51.458;7.556;2023-08-31T07:45:45;7.57;;;5.25;;
75774;SDS011;64505;51.458;7.556;2023-08-31T07:47:47;7.45;;;5.00;;
75774;SDS011;64505;51.458;7.556;2023-08-31T07:49:48;7.13;;;4.40;;
75774;SDS011;64505;51.458;7.556;2023-08-31T07:51:50;8.20;;;4.55;;
75774;SDS011;64505;51.458;7.556;2023-08-31T07:53:51;6.35;;;3.95;;
75774;SDS011;64505;51.458;7.556;2023-08-31T07:55:53;8.18;;;4.38;;
75774;SDS011;64505;51.458;7.556;2023-08-31T07:57:55;6.50;;;3.90;;
75774;SDS011;64505;51.458;7.556;2023-08-31T07:59:57;6.25;;;3.60;;
75774;SDS011;64505;51.458;7.556;2023-08-31T08:01:59;7.72;;;3.70;;
75774;SDS011;64505;51.458;7.556;2023-08-31T08:04:00;7.07;;;3.28;;
75774;SDS011;64505;51.458;7.556;2023-08-31T08:06:02;7.45;;;3.70;;
75774;SDS011;64505;51.458;7.556;2023-08-31T08:08:04;6.82;;;3.60;;
75774;SDS011;64505;51.458;7.556;2023-08-31T08:10:06;7.72;;;3.13;;
75774;SDS011;64505;51.458;7.556;2023-08-31T08:12:08;6.65;;;2.90;;
75774;SDS011;64505;51.458;7.556;2023-08-31T08:14:10;6.38;;;3.10;;
75774;SDS011;64505;51.458;7.556;2023-08-31T08:16:11;4.90;;;2.90;;
75774;SDS011;64505;51.458;7.556;2023-08-31T08:18:13;5.03;;;3.10;;
75774;SDS011;64505;51.458;7.556;2023-08-31T08:20:14;4.95;;;2.55;;
75774;SDS011;64505;51.458;7.556;2023-08-31T08:22:16;5.75;;;2.80;;
75774;SDS011;64505;51.458;7.556;2023-08-31T08:24:17;5.55;;;2.42;;
75774;SDS011;64505;51.458;7.556;2023-08-31T08:26:19;3.95;;;2.22;;
75774;SDS011;64505;51.458;7.556;2023-08-31T08:28:20;6.28;;;1.80;;
75774;SDS011;64505;51.458;7.556;2023-08-31T08:30:22;3.47;;;1.88;;
75774;SDS011;64505;51.458;7.556;2023-08-31T08:32:23;4.82;;;2.47;;
75774;SDS011;64505;51.458;7.556;2023-08-31T08:34:25;7.30;;;2.20;;
75774;SDS011;64505;51.458;7.556;2023-08-31T08:36:28;5.32;;;2.20;;
75774;SDS011;64505;51.458;7.556;2023-08-31T08:38:29;6.40;;;2.38;;
75774;SDS011;64505;51.458;7.556;2023-08-31T08:40:31;4.15;;;1.70;;
75774;SDS011;64505;51.458;7.556;2023-08-31T08:42:35;4.85;;;1.52;;
75774;SDS011;64505;51.458;7.556;2023-08-31T08:44:42;5.72;;;1.88;;
75774;SDS011;64505;51.458;7.556;2023-08-31T08:46:45;4.35;;;1.88;;
75774;SDS011;64505;51.458;7.556;2023-08-31T08:48:47;4.50;;;1.70;;
75774;SDS011;64505;51.458;7.556;2023-08-31T08:50:50;5.43;;;1.90;;
75774;SDS011;64505;51.458;7.556;2023-08-31T08:52:52;4.35;;;1.90;;
75774;SDS011;64505;51.458;7.556;2023-08-31T08:54:55;3.78;;;1.65;;
75774;SDS011;64505;51.458;7.556;2023-08-31T08:56:57;4.50;;;1.42;;
75774;SDS011;64505;51.458;7.556;2023-08-31T08:58:59;4.35;;;1.88;;
75774;SDS011;64505;51.458;7.556;2023-08-31T09:01:00;2.85;;;1.42;;
75774;SDS011;64505;51.458;7.556;2023-08-31T09:03:03;5.38;;;1.80;;
75774;SDS011;64505;51.458;7.556;2023-08-31T09:05:05;4.10;;;1.70;;
75774;SDS011;64505;51.458;7.556;2023-08-31T09:07:07;4.03;;;1.63;;
75774;SDS011;64505;51.458;7.556;2023-08-31T09:09:09;3.13;;;1.25;;
75774;SDS011;64505;51.458;7.556;2023-08-31T09:11:19;3.78;;;1.65;;
75774;SDS011;64505;51.458;7.556;2023-08-31T09:13:21;6.03;;;1.70;;
75774;SDS011;64505;51.458;7.556;2023-08-31T09:15:35;4.30;;;1.38;;
75774;SDS011;64505;51.458;7.556;2023-08-31T09:17:38;4.00;;;1.90;;
75774;SDS011;64505;51.458;7.556;2023-08-31T09:19:43;7.30;;;2.10;;
75774;SDS011;64505;51.458;7.556;2023-08-31T09:21:44;8.52;;;1.98;;
75774;SDS011;64505;51.458;7.556;2023-08-31T09:23:55;3.28;;;1.58;;
75774;SDS011;64505;51.458;7.556;2023-08-31T09:26:00;3.70;;;1.63;;
75774;SDS011;64505;51.458;7.556;2023-08-31T09:28:02;4.38;;;1.63;;
75774;SDS011;64505;51.458;7.556;2023-08-31T09:30:04;4.85;;;2.00;;
75774;SDS011;64505;51.458;7.556;2023-08-31T09:32:07;3.17;;;1.60;;
75774;SDS011;64505;51.458;7.556;2023-08-31T09:34:09;5.22;;;1.73;;
75774;SDS011;64505;51.458;7.556;2023-08-31T09:36:10;4.35;;;2.10;;
75774;SDS011;64505;51.458;7.556;2023-08-31T09:38:12;4.35;;;1.60;;
75774;SDS011;64505;51.458;7.556;2023-08-31T09:40:15;5.68;;;1.83;;
75774;SDS011;64505;51.458;7.556;2023-08-31T09:42:17;5.32;;;1.90;;
75774;SDS011;64505;51.458;7.556;2023-08-31T09:44:19;4.70;;;1.98;;
75774;SDS011;64505;51.458;7.556;2023-08-31T09:46:21;4.28;;;1.70;;
75774;SDS011;64505;51.458;7.556;2023-08-31T09:48:23;6.47;;;1.88;;
75774;SDS011;64505;51.458;7.556;2023-08-31T09:50:26;3.28;;;1.90;;
75774;SDS011;64505;51.458;7.556;2023-08-31T09:52:29;4.50;;;1.92;;
75774;SDS011;64505;51.458;7.556;2023-08-31T09:54:31;3.60;;;1.88;;
75774;SDS011;64505;51.458;7.556;2023-08-31T09:56:36;4.93;;;1.52;;
75774;SDS011;64505;51.458;7.556;2023-08-31T09:58:38;4.20;;;1.50;;
75774;SDS011;64505;51.458;7.556;2023-08-31T10:00:40;6.13;;;1.70;;
75774;SDS011;64505;51.458;7.556;2023-08-31T10:02:42;4.25;;;1.23;;
75774;SDS011;64505;51.458;7.556;2023-08-31T10:04:45;3.80;;;1.40;;
75774;SDS011;64505;51.458;7.556;2023-08-31T10:06:46;5.28;;;1.55;;
75774;SDS011;64505;51.458;7.556;2023-08-31T10:08:49;3.92;;;1.42;;
75774;SDS011;64505;51.458;7.556;2023-08-31T10:10:50;5.30;;;1.65;;
75774;SDS011;64505;51.458;7.556;2023-08-31T10:12:52;3.63;;;1.40;;
75774;SDS011;64505;51.458;7.556;2023-08-31T10:14:55;3.80;;;1.20;;
75774;SDS011;64505;51.458;7.556;2023-08-31T10:16:57;4.25;;;1.30;;
75774;SDS011;64505;51.458;7.556;2023-08-31T10:18:59;5.00;;;1.10;;
75774;SDS011;64505;51.458;7.556;2023-08-31T10:21:01;4.05;;;1.20;;
75774;SDS011;64505;51.458;7.556;2023-08-31T10:23:04;5.90;;;1.30;;
75774;SDS011;64505;51.458;7.556;2023-08-31T10:25:06;4.13;;;1.40;;
75774;SDS011;64505;51.458;7.556;2023-08-31T10:27:18;3.33;;;1.02;;
75774;SDS011;64505;51.458;7.556;2023-08-31T10:29:27;2.95;;;1.10;;
75774;SDS011;64505;51.458;7.556;2023-08-31T10:31:31;5.55;;;1.08;;
75774;SDS011;64505;51.458;7.556;2023-08-31T10:33:46;6.40;;;1.13;;
75774;SDS011;64505;51.458;7.556;2023-08-31T10:35:56;4.20;;;1.23;;
75774;SDS011;64505;51.458;7.556;2023-08-31T10:38:13;2.50;;;1.13;;
75774;SDS011;64505;51.458;7.556;2023-08-31T10:40:33;3.55;;;1.45;;
75774;SDS011;64505;51.458;7.556;2023-08-31T10:42:42;4.25;;;1.20;;
75774;SDS011;64505;51.458;7.556;2023-08-31T10:44:44;4.00;;;0.90;;
75774;SDS011;64505;51.458;7.556;2023-08-31T10:46:46;3.70;;;1.20;;
75774;SDS011;64505;51.458;7.556;2023-08-31T10:51:04;3.95;;;1.00;;
75774;SDS011;64505;51.458;7.556;2023-08-31T10:53:08;3.38;;;1.60;;
75774;SDS011;64505;51.458;7.556;2023-08-31T10:55:11;3.03;;;1.05;;
75774;SDS011;64505;51.458;7.556;2023-08-31T10:57:13;2.55;;;1.13;;
75774;SDS011;64505;51.458;7.556;2023-08-31T10:59:16;7.35;;;1.30;;
75774;SDS011;64505;51.458;7.556;2023-08-31T11:01:40;3.25;;;1.00;;
75774;SDS011;64505;51.458;7.556;2023-08-31T11:03:58;4.10;;;1.00;;
75774;SDS011;64505;51.458;7.556;2023-08-31T11:06:01;2.78;;;1.02;;
75774;SDS011;64505;51.458;7.556;2023-08-31T11:08:02;4.45;;;1.27;;
75774;SDS011;64505;51.458;7.556;2023-08-31T11:10:08;4.30;;;1.10;;
75774;SDS011;64505;51.458;7.556;2023-08-31T11:12:25;6.25;;;1.33;;
75774;SDS011;64505;51.458;7.556;2023-08-31T11:14:26;4.07;;;1.08;;
75774;SDS011;64505;51.458;7.556;2023-08-31T11:16:29;1.85;;;1.00;;
75774;SDS011;64505;51.458;7.556;2023-08-31T11:18:32;2.75;;;1.20;;
75774;SDS011;64505;51.458;7.556;2023-08-31T11:20:33;3.50;;;1.20;;
75774;SDS011;64505;51.458;7.556;2023-08-31T11:22:39;3.50;;;1.15;;
75774;SDS011;64505;51.458;7.556;2023-08-31T11:24:43;2.78;;;1.20;;
75774;SDS011;64505;51.458;7.556;2023-08-31T11:26:44;2.67;;;1.08;;
75774;SDS011;64505;51.458;7.556;2023-08-31T11:28:49;5.13;;;1.02;;
75774;SDS011;64505;51.458;7.556;2023-08-31T11:30:50;3.13;;;1.00;;
75774;SDS011;64505;51.458;7.556;2023-08-31T11:32:52;2.58;;;0.93;;
75774;SDS011;64505;51.458;7.556;2023-08-31T11:34:55;3.38;;;1.05;;
75774;SDS011;64505;51.458;7.556;2023-08-31T11:36:57;3.42;;;1.33;;
75774;SDS011;64505;51.458;7.556;2023-08-31T11:38:58;4.65;;;1.05;;
75774;SDS011;64505;51.458;7.556;2023-08-31T11:41:01;2.75;;;1.17;;
75774;SDS011;64505;51.458;7.556;2023-08-31T11:43:06;3.40;;;1.08;;
75774;SDS011;64505;51.458;7.556;2023-08-31T11:45:09;3.80;;;1.13;;
75774;SDS011;64505;51.458;7.556;2023-08-31T11:47:13;5.20;;;1.50;;
75774;SDS011;64505;51.458;7.556;2023-08-31T11:49:17;3.00;;;1.30;;
75774;SDS011;64505;51.458;7.556;2023-08-31T11:51:20;3.15;;;1.20;;
75774;SDS011;64505;51.458;7.556;2023-08-31T11:53:22;4.78;;;1.02;;
75774;SDS011;64505;51.458;7.556;2023-08-31T11:55:23;5.07;;;1.20;;
75774;SDS011;64505;51.458;7.556;2023-08-31T11:57:25;3.72;;;1.23;;
75774;SDS011;64505;51.458;7.556;2023-08-31T11:59:27;3.63;;;1.30;;
75774;SDS011;64505;51.458;7.556;2023-08-31T12:01:29;7.68;;;1.50;;
75774;SDS011;64505;51.458;7.556;2023-08-31T12:03:41;3.45;;;1.27;;
75774;SDS011;64505;51.458;7.556;2023-08-31T12:05:51;5.13;;;1.30;;
75774;SDS011;64505;51.458;7.556;2023-08-31T12:07:59;4.63;;;1.05;;
75774;SDS011;64505;51.458;7.556;2023-08-31T12:10:04;5.03;;;1.55;;
75774;SDS011;64505;51.458;7.556;2023-08-31T12:12:07;3.63;;;1.10;;
75774;SDS011;64505;51.458;7.556;2023-08-31T12:14:30;4.10;;;1.42;;
75774;SDS011;64505;51.458;7.556;2023-08-31T12:16:34;5.80;;;2.00;;
75774;SDS011;64505;51.458;7.556;2023-08-31T12:18:39;2.95;;;1.30;;
75774;SDS011;64505;51.458;7.556;2023-08-31T12:20:44;4.80;;;1.35;;
75774;SDS011;64505;51.458;7.556;2023-08-31T12:22:46;7.32;;;1.45;;
75774;SDS011;64505;51.458;7.556;2023-08-31T12:24:47;5.38;;;1.35;;
75774;SDS011;64505;51.458;7.556;2023-08-31T12:26:49;5.03;;;1.35;;
75774;SDS011;64505;51.458;7.556;2023-08-31T12:28:51;5.72;;;1.45;;
75774;SDS011;64505;51.458;7.556;2023-08-31T12:30:54;4.22;;;1.30;;